Terminal Aerodrome Forecast
Issued by NWS

Home | Current Version | Previous Version | Text Only | Print | Product List | Glossary On
Versions: 1 2 3 4 5 6 7 8 9 10 11 12 13 14 15 16 17 18 19 20 21 22 23
792
FTUS43 KDLH 231211 AAA
TAFBRD
TAF AMD
KBRD 231211Z 2312/2412 02005KT P6SM SCT010 OVC040
      TEMPO 2312/2315 6SM -SHRA BR BKN007 OVC040
     FM231500 01008KT P6SM VCSH BKN012 OVC035
     FM231700 01010KT P6SM VCSH BKN022
     FM232000 01010KT P6SM VCSH SCT025 BKN040
     FM240100 02006KT P6SM BKN040
      TEMPO 2409/2412 2SM BR SCT005 BKN015=

USA.gov is the U.S. government's official web portal to all federal, state and local government web resources and services.